Time;durP1;ratioP1;P1;durP2;ratioP2;P2;SDS_P1;SDS_P2;PMS_P1;PMS_P2;Temp;Humidity;BMP_temperature;BMP_pressure;BME280_temperature;BME280_humidity;BME280_pressure;Samples;Min_cycle;Max_cycle;Signal;HPM_P1;HPM_P2
2022/01/16 00:06:13;;;;;;;18.60;7.67;;;3.70;99.90;;;;;;4989080;28;20482;-77
2022/01/16 00:08:39;;;;;;;18.43;8.70;;;3.70;99.90;;;;;;4988743;28;20461;-74
2022/01/16 00:11:04;;;;;;;18.17;8.93;;;3.70;99.90;;;;;;4985072;28;20515;-75
2022/01/16 00:13:30;;;;;;;16.13;8.57;;;3.60;99.90;;;;;;4969832;28;20472;-74
2022/01/16 00:15:56;;;;;;;21.87;8.00;;;3.60;99.90;;;;;;4990449;28;20222;-76
2022/01/16 00:18:39;;;;;;;26.90;8.93;;;3.60;99.90;;;;;;4972875;28;20229;-75
2022/01/16 00:21:05;;;;;;;21.77;9.30;;;3.60;99.90;;;;;;5003765;28;20223;-76
2022/01/16 00:23:31;;;;;;;25.03;10.43;;;3.50;99.90;;;;;;4990520;28;20488;-77
2022/01/16 00:25:57;;;;;;;24.97;9.43;;;3.40;99.90;;;;;;4981162;28;20226;-77
2022/01/16 00:28:23;;;;;;;18.10;9.40;;;3.40;99.90;;;;;;4989316;28;20293;-77
2022/01/16 00:30:51;;;;;;;20.40;8.90;;;3.40;99.90;;;;;;4986646;28;20461;-75
2022/01/16 00:33:17;;;;;;;18.60;9.40;;;3.50;99.90;;;;;;4988732;28;20465;-77
2022/01/16 00:35:43;;;;;;;15.07;8.10;;;3.50;99.90;;;;;;4988927;28;20464;-76
2022/01/16 00:38:09;;;;;;;19.80;9.00;;;3.40;99.90;;;;;;4989907;28;20809;-77
2022/01/16 00:40:36;;;;;;;23.27;8.57;;;3.40;99.90;;;;;;4973332;28;20457;-77
2022/01/16 00:43:02;;;;;;;18.70;8.00;;;3.30;99.90;;;;;;4987631;28;20465;-76
2022/01/16 00:45:34;;;;;;;20.10;8.70;;;3.30;99.90;;;;;;4990409;28;20455;-77
2022/01/16 00:48:02;;;;;;;18.63;8.60;;;3.20;99.90;;;;;;4988921;28;20465;-77
2022/01/16 00:50:28;;;;;;;19.07;8.10;;;3.20;99.90;;;;;;4989140;28;20487;-77
2022/01/16 00:52:54;;;;;;;17.70;7.63;;;3.20;99.90;;;;;;4972429;28;20457;-77
2022/01/16 00:55:20;;;;;;;16.50;7.10;;;3.10;99.90;;;;;;4989926;28;20552;-76
2022/01/16 00:57:46;;;;;;;22.13;9.40;;;3.10;99.90;;;;;;4986016;28;20248;-77
2022/01/16 01:00:12;;;;;;;13.07;8.20;;;3.10;99.90;;;;;;4990044;28;20454;-76
2022/01/16 01:02:38;;;;;;;13.40;7.47;;;3.00;99.90;;;;;;4990105;28;20242;-77
2022/01/16 01:05:04;;;;;;;20.43;8.53;;;3.10;99.90;;;;;;4983163;28;20472;-76
2022/01/16 01:07:29;;;;;;;13.33;7.70;;;3.10;99.90;;;;;;5002084;28;20249;-77
2022/01/16 01:09:55;;;;;;;20.40;8.43;;;3.10;99.90;;;;;;4972751;28;20499;-77
2022/01/16 01:12:40;;;;;;;15.37;7.20;;;3.10;99.90;;;;;;4988714;28;20284;-76
2022/01/16 01:15:10;;;;;;;17.10;7.27;;;3.00;99.90;;;;;;4987215;28;20240;-77
2022/01/16 01:17:44;;;;;;;15.13;7.57;;;3.00;99.90;;;;;;5001285;28;20968;-77
2022/01/16 01:20:14;;;;;;;11.87;5.97;;;2.90;99.90;;;;;;4969680;28;20457;-76
2022/01/16 01:22:39;;;;;;;18.50;7.57;;;2.90;99.90;;;;;;4987798;28;20505;-77
2022/01/16 01:25:05;;;;;;;15.40;7.73;;;2.90;99.90;;;;;;4989666;28;20488;-78
2022/01/16 01:27:33;;;;;;;11.63;5.60;;;2.90;99.90;;;;;;4989902;28;20225;-77
2022/01/16 01:30:04;;;;;;;10.03;5.73;;;2.90;99.90;;;;;;4990155;28;20453;-77
2022/01/16 01:32:31;;;;;;;20.80;8.57;;;2.90;99.90;;;;;;4998853;28;20491;-77
2022/01/16 01:34:58;;;;;;;12.83;6.53;;;2.90;99.90;;;;;;4988996;28;20549;-75
2022/01/16 01:37:24;;;;;;;16.17;7.30;;;2.90;99.90;;;;;;4988591;28;20548;-77
2022/01/16 01:39:49;;;;;;;14.13;7.60;;;2.90;99.90;;;;;;4971806;28;20221;-77
2022/01/16 01:42:16;;;;;;;13.07;6.53;;;2.90;99.90;;;;;;4991483;28;20284;-77
2022/01/16 01:53:13;;;;;;;12.93;6.67;;;3.00;99.90;;;;;;4975473;28;20817;-76
2022/01/16 01:55:42;;;;;;;16.17;7.00;;;3.00;99.90;;;;;;4992662;28;20461;-77
2022/01/16 01:58:09;;;;;;;12.13;7.17;;;3.00;99.90;;;;;;4992074;28;20834;-76
2022/01/16 02:00:35;;;;;;;11.50;6.67;;;3.00;99.90;;;;;;4993919;28;20449;-77
2022/01/16 02:05:27;;;;;;;17.17;7.87;;;2.90;99.90;;;;;;4992065;28;20523;-76
2022/01/16 02:07:52;;;;;;;15.23;7.90;;;3.00;99.90;;;;;;4992189;28;20246;-76
2022/01/16 02:10:18;;;;;;;12.77;6.30;;;3.00;99.90;;;;;;4990800;28;20223;-76
2022/01/16 02:12:46;;;;;;;16.93;8.47;;;3.00;99.90;;;;;;4983774;28;20222;-75
2022/01/16 02:27:57;;;;;;;17.00;8.57;;;3.00;99.90;;;;;;4989744;28;20218;-77
2022/01/16 02:31:44;;;;;;;16.70;9.20;;;3.10;99.90;;;;;;4989277;28;20478;-75
2022/01/16 02:34:31;;;;;;;17.57;7.50;;;3.10;99.90;;;;;;5003240;28;20457;-77
2022/01/16 02:37:03;;;;;;;19.90;8.27;;;3.10;99.90;;;;;;4989069;28;21223;-76
2022/01/16 02:39:31;;;;;;;19.37;8.90;;;3.10;99.90;;;;;;4989512;28;20500;-77
2022/01/16 02:41:59;;;;;;;15.63;7.87;;;3.10;99.90;;;;;;4975417;28;20824;-76
2022/01/16 02:46:55;;;;;;;17.33;8.30;;;3.10;99.90;;;;;;4991614;28;20441;-77
2022/01/16 02:49:32;;;;;;;13.10;7.90;;;3.10;99.90;;;;;;4991624;28;20463;-77
2022/01/16 02:52:18;;;;;;;14.97;7.70;;;3.10;99.90;;;;;;4990994;28;20528;-77
2022/01/16 02:54:46;;;;;;;19.13;7.80;;;3.10;99.90;;;;;;4973347;28;20988;-75
2022/01/16 02:57:14;;;;;;;16.50;8.60;;;3.10;99.90;;;;;;4991675;28;20448;-77
2022/01/16 02:59:47;;;;;;;18.20;8.60;;;3.10;99.90;;;;;;4975847;28;20815;-77
2022/01/16 03:02:14;;;;;;;15.63;7.90;;;3.00;99.90;;;;;;4975579;28;20505;-76
2022/01/16 03:04:40;;;;;;;15.80;7.90;;;3.00;99.90;;;;;;4991114;28;20879;-76
2022/01/16 03:07:06;;;;;;;14.00;6.90;;;3.00;99.90;;;;;;4991030;28;20544;-77
2022/01/16 03:12:16;;;;;;;14.53;7.07;;;2.90;99.90;;;;;;4990611;28;20229;-76
2022/01/16 03:14:42;;;;;;;15.20;8.10;;;2.80;99.90;;;;;;4974870;28;20453;-74
2022/01/16 03:17:09;;;;;;;17.10;6.90;;;2.80;99.90;;;;;;4992424;28;20226;-76
2022/01/16 03:22:19;;;;;;;13.77;6.40;;;2.70;99.90;;;;;;4991095;28;20449;-77
2022/01/16 03:24:46;;;;;;;11.70;6.80;;;2.80;99.90;;;;;;4991098;28;20470;-76
2022/01/16 03:27:15;;;;;;;16.47;7.37;;;2.80;99.90;;;;;;4992248;28;20222;-76
2022/01/16 03:29:43;;;;;;;14.00;6.53;;;2.80;99.90;;;;;;4975352;28;20449;-77
2022/01/16 03:32:12;;;;;;;19.40;7.33;;;2.80;99.90;;;;;;4991825;28;20472;-77
2022/01/16 03:34:38;;;;;;;19.40;8.13;;;2.70;99.90;;;;;;4974686;28;20548;-76
2022/01/16 03:37:04;;;;;;;13.57;6.20;;;2.60;99.90;;;;;;4990365;28;20554;-75
2022/01/16 03:39:30;;;;;;;10.73;6.27;;;2.60;99.90;;;;;;4990625;28;20233;-77
2022/01/16 03:41:56;;;;;;;14.57;7.10;;;2.60;99.90;;;;;;4990858;28;20484;-76
2022/01/16 03:44:23;;;;;;;19.07;6.93;;;2.60;99.90;;;;;;4992100;28;20226;-77
2022/01/16 03:46:49;;;;;;;10.60;5.83;;;2.60;99.90;;;;;;4991544;28;20457;-75
2022/01/16 03:49:17;;;;;;;15.43;6.70;;;2.70;99.90;;;;;;4990659;28;20480;-77
2022/01/16 03:51:48;;;;;;;11.50;5.83;;;2.70;99.90;;;;;;4990914;28;20536;-77
2022/01/16 03:54:20;;;;;;;12.57;6.70;;;2.70;99.90;;;;;;4989865;28;20469;-75
2022/01/16 03:56:46;;;;;;;10.23;5.33;;;2.70;99.90;;;;;;4991068;28;20461;-77
2022/01/16 03:59:13;;;;;;;8.13;5.00;;;2.80;99.90;;;;;;4991402;28;20520;-77
2022/01/16 04:01:39;;;;;;;14.20;6.33;;;2.80;99.90;;;;;;4992304;28;20467;-77
2022/01/16 04:04:05;;;;;;;9.33;6.07;;;2.80;99.90;;;;;;4990883;28;20477;-77
2022/01/16 04:06:31;;;;;;;12.40;6.77;;;2.80;99.90;;;;;;4991410;28;20540;-77
2022/01/16 04:08:57;;;;;;;8.27;5.33;;;2.90;99.90;;;;;;4989275;28;20464;-77
2022/01/16 04:11:25;;;;;;;13.00;6.10;;;2.90;99.90;;;;;;4990264;28;20870;-77
2022/01/16 04:13:54;;;;;;;13.90;5.73;;;2.90;99.90;;;;;;4990205;28;20457;-78
2022/01/16 04:16:22;;;;;;;11.43;5.50;;;2.90;99.90;;;;;;4991068;28;20464;-77
2022/01/16 04:18:58;;;;;;;17.20;6.97;;;2.90;99.90;;;;;;4974034;28;20461;-76
2022/01/16 04:21:26;;;;;;;9.70;5.60;;;2.90;99.90;;;;;;4970568;28;20965;-77
2022/01/16 04:23:52;;;;;;;15.53;6.87;;;2.90;99.90;;;;;;4990025;28;21033;-76
2022/01/16 04:26:19;;;;;;;10.10;5.03;;;3.00;99.90;;;;;;4989856;28;20543;-75
2022/01/16 04:28:46;;;;;;;11.67;5.43;;;3.00;99.90;;;;;;4989830;28;20512;-76
2022/01/16 04:31:13;;;;;;;16.40;6.97;;;3.00;99.90;;;;;;4990120;28;20496;-77
2022/01/16 04:33:39;;;;;;;9.83;5.70;;;2.90;99.90;;;;;;4989756;28;21506;-78
2022/01/16 04:36:06;;;;;;;13.63;6.10;;;2.90;99.90;;;;;;4990370;28;20457;-77
2022/01/16 04:38:34;;;;;;;12.90;6.70;;;2.80;99.90;;;;;;4990166;28;20993;-77
2022/01/16 04:43:53;;;;;;;11.63;5.80;;;2.70;99.90;;;;;;4990920;28;20479;-77
2022/01/16 04:46:24;;;;;;;9.40;6.10;;;2.70;99.90;;;;;;4989688;28;20445;-75
2022/01/16 04:48:51;;;;;;;8.83;4.80;;;2.70;99.90;;;;;;4989956;28;20473;-76
2022/01/16 04:51:18;;;;;;;12.03;6.07;;;2.70;99.90;;;;;;4989457;28;20457;-76
2022/01/16 04:53:44;;;;;;;18.03;6.27;;;2.60;99.90;;;;;;4973499;28;20484;-77
2022/01/16 04:56:10;;;;;;;15.20;6.77;;;2.60;99.90;;;;;;4989919;28;20551;-77
2022/01/16 04:58:38;;;;;;;13.07;7.50;;;2.60;99.90;;;;;;4989487;28;20236;-77
2022/01/16 05:01:05;;;;;;;11.80;6.70;;;2.50;99.90;;;;;;4989673;28;20453;-77
2022/01/16 05:03:31;;;;;;;12.33;6.30;;;2.50;99.90;;;;;;4989447;28;20628;-77
2022/01/16 05:05:57;;;;;;;13.70;5.93;;;2.50;99.90;;;;;;4990266;28;20453;-77
2022/01/16 05:08:23;;;;;;;12.37;6.40;;;2.40;99.90;;;;;;4989451;28;20453;-77
2022/01/16 05:10:53;;;;;;;13.33;6.67;;;2.40;99.90;;;;;;4982408;28;20217;-76
2022/01/16 05:18:38;;;;;;;14.83;7.80;;;2.40;99.90;;;;;;4994311;28;20552;-77
2022/01/16 05:21:04;;;;;;;15.37;7.77;;;2.50;99.90;;;;;;4994163;28;20457;-77
2022/01/16 05:23:30;;;;;;;17.37;7.90;;;2.50;99.90;;;;;;4992615;28;20465;-77
2022/01/16 05:25:56;;;;;;;12.13;6.83;;;2.50;99.90;;;;;;4994522;28;20469;-77
2022/01/16 05:28:22;;;;;;;12.97;6.60;;;2.50;99.90;;;;;;5009210;28;20304;-77
2022/01/16 05:30:48;;;;;;;11.53;6.40;;;2.50;99.90;;;;;;4993632;28;20461;-76
2022/01/16 05:33:14;;;;;;;13.00;5.83;;;2.50;99.90;;;;;;4989263;28;20889;-76
2022/01/16 05:35:40;;;;;;;10.60;6.60;;;2.50;99.90;;;;;;4992814;28;20249;-77
2022/01/16 05:38:05;;;;;;;17.03;7.20;;;2.50;99.90;;;;;;4992430;28;20225;-75
2022/01/16 05:40:31;;;;;;;14.03;6.97;;;2.60;99.90;;;;;;4993127;28;20457;-76
2022/01/16 05:42:58;;;;;;;13.70;6.97;;;2.60;99.90;;;;;;4992637;28;20221;-76
2022/01/16 05:45:27;;;;;;;17.40;7.37;;;2.60;99.90;;;;;;5000924;28;20216;-77
2022/01/16 05:47:52;;;;;;;15.47;8.03;;;2.60;99.90;;;;;;5006676;28;20460;-77
2022/01/16 05:50:18;;;;;;;17.60;7.47;;;2.60;99.90;;;;;;5007648;28;20445;-76
2022/01/16 05:52:44;;;;;;;10.70;6.13;;;2.60;99.90;;;;;;4992551;28;20708;-75
2022/01/16 05:55:10;;;;;;;9.20;5.07;;;2.50;99.90;;;;;;5008583;28;20323;-77
2022/01/16 05:57:36;;;;;;;13.27;6.47;;;2.50;99.90;;;;;;4992034;28;20287;-77
2022/01/16 06:00:04;;;;;;;11.43;6.87;;;2.50;99.90;;;;;;4976485;28;20449;-77
2022/01/16 06:02:33;;;;;;;14.70;7.30;;;2.50;99.90;;;;;;5009146;28;20253;-78
2022/01/16 06:04:58;;;;;;;19.30;7.20;;;2.40;99.90;;;;;;4992012;28;20457;-76
2022/01/16 06:07:24;;;;;;;19.83;8.17;;;2.30;99.90;;;;;;4993239;28;20472;-75
2022/01/16 06:09:52;;;;;;;19.70;8.60;;;2.30;99.90;;;;;;4984406;28;20214;-77
2022/01/16 06:12:18;;;;;;;12.63;6.83;;;2.30;99.90;;;;;;4992623;28;20217;-77
2022/01/16 06:14:44;;;;;;;18.10;8.27;;;2.30;99.90;;;;;;4992014;28;20449;-76
2022/01/16 06:17:09;;;;;;;12.43;7.20;;;2.30;99.90;;;;;;4992031;28;20591;-77
2022/01/16 06:19:35;;;;;;;11.23;7.00;;;2.30;99.90;;;;;;4994303;28;20242;-77
2022/01/16 06:22:04;;;;;;;8.53;5.20;;;2.20;99.90;;;;;;4993308;28;20218;-76
2022/01/16 06:24:33;;;;;;;14.60;6.63;;;2.20;99.90;;;;;;4992618;28;20225;-77
2022/01/16 06:27:07;;;;;;;11.03;5.77;;;2.20;99.90;;;;;;4991349;28;20535;-77
2022/01/16 06:29:35;;;;;;;11.90;5.47;;;2.10;99.90;;;;;;4993252;28;20457;-77
2022/01/16 06:32:10;;;;;;;12.20;6.00;;;2.10;99.90;;;;;;4975638;28;20461;-77
2022/01/16 06:34:36;;;;;;;13.57;6.93;;;2.10;99.90;;;;;;4992130;28;20225;-77
2022/01/16 06:37:01;;;;;;;13.30;7.33;;;2.00;99.90;;;;;;4974637;28;20509;-77
2022/01/16 06:39:29;;;;;;;11.77;5.97;;;2.10;99.90;;;;;;4991733;28;20722;-77
2022/01/16 06:41:56;;;;;;;11.57;5.30;;;2.10;99.90;;;;;;4993725;28;20228;-76
2022/01/16 06:44:23;;;;;;;13.43;7.30;;;2.10;99.90;;;;;;4991427;28;20461;-76
2022/01/16 06:46:51;;;;;;;12.50;6.57;;;2.10;99.90;;;;;;5000186;28;21055;-75
2022/01/16 06:49:22;;;;;;;12.77;5.63;;;2.10;99.90;;;;;;4991208;28;20445;-77
2022/01/16 06:51:48;;;;;;;8.80;5.17;;;2.10;99.90;;;;;;4984322;28;20896;-75
2022/01/16 06:54:14;;;;;;;11.70;6.73;;;2.20;99.90;;;;;;4991040;28;21056;-74
2022/01/16 06:56:39;;;;;;;11.67;5.83;;;2.20;99.90;;;;;;4991435;28;20545;-77
2022/01/16 06:59:05;;;;;;;13.07;6.73;;;2.20;99.90;;;;;;4990760;28;20362;-76
2022/01/16 07:01:31;;;;;;;11.13;5.90;;;2.20;99.90;;;;;;4975435;28;20232;-77
2022/01/16 07:03:57;;;;;;;13.87;6.87;;;2.20;99.90;;;;;;4990276;28;20461;-77
2022/01/16 07:06:23;;;;;;;15.33;7.00;;;2.20;99.90;;;;;;4978406;28;20686;-75
2022/01/16 07:08:49;;;;;;;13.40;6.17;;;2.20;99.90;;;;;;4991454;28;20230;-75
2022/01/16 07:11:15;;;;;;;15.97;7.83;;;2.20;99.90;;;;;;5003900;28;20499;-77
2022/01/16 07:13:42;;;;;;;12.70;7.57;;;2.20;99.90;;;;;;4994345;28;20489;-77
2022/01/16 07:16:07;;;;;;;13.50;6.83;;;2.20;99.90;;;;;;4990764;28;20454;-77
2022/01/16 07:18:33;;;;;;;13.80;7.47;;;2.20;99.90;;;;;;4992589;28;20480;-77
2022/01/16 07:21:02;;;;;;;13.27;7.80;;;2.20;99.90;;;;;;4974419;28;20230;-77
2022/01/16 07:23:28;;;;;;;16.13;7.80;;;2.20;99.90;;;;;;4992160;28;20237;-77
2022/01/16 07:25:56;;;;;;;10.97;6.77;;;2.10;99.90;;;;;;4975306;28;20460;-77
2022/01/16 07:28:22;;;;;;;20.40;9.90;;;2.10;99.90;;;;;;4991731;28;20465;-77
2022/01/16 07:30:50;;;;;;;12.97;7.33;;;2.10;99.90;;;;;;4991239;28;20222;-77
2022/01/16 07:33:16;;;;;;;11.67;6.10;;;2.10;99.90;;;;;;4985017;28;20296;-77
2022/01/16 07:35:42;;;;;;;12.57;6.20;;;2.10;99.90;;;;;;4992012;28;20597;-76
2022/01/16 07:38:08;;;;;;;18.57;8.70;;;2.10;99.90;;;;;;4972943;28;20234;-76
2022/01/16 07:40:35;;;;;;;13.93;8.20;;;2.10;99.90;;;;;;4990332;28;20686;-77
2022/01/16 07:43:04;;;;;;;26.20;13.77;;;2.10;99.90;;;;;;4991603;28;20502;-77
2022/01/16 07:45:30;;;;;;;22.07;10.80;;;2.10;99.90;;;;;;5000121;28;20452;-77
2022/01/16 07:47:55;;;;;;;14.50;8.47;;;2.10;99.90;;;;;;4990752;28;20511;-77
2022/01/16 07:50:21;;;;;;;24.00;9.47;;;2.00;99.90;;;;;;4973810;28;20225;-76
2022/01/16 07:52:50;;;;;;;16.43;8.57;;;2.00;99.90;;;;;;4990076;28;20237;-77
2022/01/16 07:55:18;;;;;;;32.10;16.00;;;2.10;99.90;;;;;;4991526;28;20234;-75
2022/01/16 07:57:44;;;;;;;21.73;10.37;;;2.00;99.90;;;;;;4990886;28;20453;-77
2022/01/16 08:00:12;;;;;;;29.30;14.63;;;2.00;99.90;;;;;;4990088;28;20456;-76
2022/01/16 08:02:40;;;;;;;29.53;14.47;;;2.00;99.90;;;;;;4991534;28;20468;-77
2022/01/16 08:05:06;;;;;;;18.93;9.37;;;2.00;99.90;;;;;;4990824;28;20457;-77
2022/01/16 08:07:32;;;;;;;18.50;9.07;;;2.00;99.90;;;;;;4990376;28;20257;-77
2022/01/16 08:09:57;;;;;;;20.73;10.17;;;2.00;99.90;;;;;;4973292;28;20488;-76
2022/01/16 08:12:23;;;;;;;20.20;10.73;;;2.00;99.90;;;;;;4974215;28;20233;-77
2022/01/16 08:14:49;;;;;;;19.83;10.30;;;2.00;99.90;;;;;;4986209;28;20215;-77
2022/01/16 08:17:14;;;;;;;18.87;8.20;;;2.00;99.90;;;;;;4968704;28;20238;-77
2022/01/16 08:19:40;;;;;;;21.90;10.10;;;2.00;99.90;;;;;;4981915;28;20238;-77
2022/01/16 08:22:06;;;;;;;18.97;8.40;;;2.00;99.90;;;;;;4988635;28;20602;-77
2022/01/16 08:24:31;;;;;;;23.13;8.70;;;2.00;99.90;;;;;;4981333;28;20609;-77
2022/01/16 08:26:57;;;;;;;16.30;8.17;;;2.00;99.90;;;;;;4967213;28;20218;-77
2022/01/16 08:29:23;;;;;;;18.93;9.73;;;2.00;99.90;;;;;;4981405;28;20230;-77
2022/01/16 08:31:48;;;;;;;20.10;9.93;;;2.00;99.90;;;;;;4975618;28;20217;-76
2022/01/16 08:34:14;;;;;;;25.63;11.13;;;2.00;99.90;;;;;;4986778;28;20272;-75
2022/01/16 08:36:40;;;;;;;20.60;9.30;;;2.00;99.90;;;;;;4987673;28;20227;-77
2022/01/16 08:39:05;;;;;;;28.13;13.77;;;2.00;99.90;;;;;;4988915;28;20241;-76
2022/01/16 08:41:37;;;;;;;25.30;13.20;;;2.00;99.90;;;;;;4991521;28;20225;-77
2022/01/16 08:44:06;;;;;;;22.17;11.10;;;2.00;99.90;;;;;;4978342;28;20478;-77
2022/01/16 08:46:32;;;;;;;17.90;8.60;;;2.00;99.90;;;;;;4993292;28;20467;-77
2022/01/16 08:48:58;;;;;;;18.60;8.83;;;2.00;99.90;;;;;;4990403;28;20552;-78
2022/01/16 08:51:23;;;;;;;16.07;8.90;;;2.00;99.90;;;;;;4987375;28;20600;-76
2022/01/16 08:53:49;;;;;;;19.17;9.17;;;2.00;99.90;;;;;;4973109;28;20332;-76
2022/01/16 08:56:15;;;;;;;16.63;8.00;;;2.00;99.90;;;;;;4987525;28;20587;-76
2022/01/16 08:58:41;;;;;;;17.97;9.47;;;2.00;99.90;;;;;;4990451;28;20233;-76
2022/01/16 09:01:07;;;;;;;21.57;8.67;;;2.00;99.90;;;;;;4990154;28;20222;-77
2022/01/16 09:03:33;;;;;;;20.13;10.00;;;2.00;99.90;;;;;;4989356;28;20541;-77
2022/01/16 09:05:59;;;;;;;14.00;6.73;;;2.10;99.90;;;;;;4988451;28;20221;-77
2022/01/16 09:08:25;;;;;;;18.60;8.33;;;2.10;99.90;;;;;;4989270;28;20460;-77
2022/01/16 09:10:50;;;;;;;17.70;7.80;;;2.10;99.90;;;;;;4991130;28;20221;-76
2022/01/16 09:13:16;;;;;;;17.70;7.67;;;2.10;99.90;;;;;;4983410;28;20649;-76
2022/01/16 09:15:44;;;;;;;18.40;7.80;;;2.20;99.90;;;;;;4984658;28;20269;-76
2022/01/16 09:18:10;;;;;;;18.77;8.77;;;2.20;99.90;;;;;;4989900;28;20230;-77
2022/01/16 09:20:36;;;;;;;18.17;8.47;;;2.20;99.90;;;;;;4973739;28;20441;-76
2022/01/16 09:23:02;;;;;;;18.43;8.00;;;2.20;99.90;;;;;;4986316;28;20483;-76
2022/01/16 09:25:27;;;;;;;15.77;7.50;;;2.20;99.90;;;;;;4989463;28;21024;-77
2022/01/16 09:27:54;;;;;;;13.43;6.87;;;2.20;99.90;;;;;;4990487;28;20249;-76
2022/01/16 09:30:22;;;;;;;15.87;7.07;;;2.20;99.90;;;;;;4988658;28;20218;-77
2022/01/16 09:32:48;;;;;;;13.87;7.77;;;2.20;99.90;;;;;;4990136;28;20460;-77
2022/01/16 09:35:15;;;;;;;19.20;8.63;;;2.30;99.90;;;;;;4986741;28;20453;-76
2022/01/16 09:37:41;;;;;;;18.67;9.57;;;2.30;99.90;;;;;;4988901;28;20461;-76
2022/01/16 09:40:09;;;;;;;20.87;9.57;;;2.30;99.90;;;;;;4988004;28;20453;-76
2022/01/16 09:42:35;;;;;;;12.57;6.80;;;2.40;99.90;;;;;;4989000;28;20457;-76
2022/01/16 09:45:06;;;;;;;24.07;9.30;;;2.40;99.90;;;;;;4995587;28;20451;-75
2022/01/16 09:47:32;;;;;;;14.90;8.23;;;2.40;99.90;;;;;;4991706;28;20547;-77
2022/01/16 09:49:58;;;;;;;12.60;7.80;;;2.40;99.90;;;;;;4997763;28;20544;-77
2022/01/16 09:52:24;;;;;;;16.53;8.70;;;2.30;99.90;;;;;;4988769;28;20225;-76
2022/01/16 09:54:50;;;;;;;12.50;6.30;;;2.30;99.90;;;;;;4988806;28;20612;-76
2022/01/16 09:57:16;;;;;;;20.43;7.47;;;2.30;99.90;;;;;;4988501;28;20210;-76
2022/01/16 09:59:44;;;;;;;15.17;8.17;;;2.30;99.90;;;;;;4990106;28;20452;-76
2022/01/16 10:02:10;;;;;;;21.23;8.17;;;2.30;99.90;;;;;;5005818;28;20257;-76
2022/01/16 10:04:43;;;;;;;17.90;7.47;;;2.30;99.90;;;;;;4977000;28;21120;-76
2022/01/16 10:07:14;;;;;;;23.80;10.90;;;2.30;99.90;;;;;;5008105;28;20468;-76
2022/01/16 10:09:45;;;;;;;20.93;10.53;;;2.40;99.90;;;;;;4992420;28;20996;-76
2022/01/16 10:12:17;;;;;;;35.83;16.47;;;2.40;99.90;;;;;;4993135;28;20469;-76
2022/01/16 10:14:49;;;;;;;57.67;27.33;;;2.40;99.90;;;;;;4992217;28;21073;-75
2022/01/16 10:17:23;;;;;;;52.07;25.90;;;2.40;99.90;;;;;;4992090;28;20532;-77
2022/01/16 10:20:01;;;;;;;36.30;19.93;;;2.40;99.90;;;;;;4992482;28;20480;-76
2022/01/16 10:22:47;;;;;;;44.60;19.93;;;2.40;99.90;;;;;;4988001;28;20453;-76
2022/01/16 10:25:15;;;;;;;29.00;17.23;;;2.40;99.90;;;;;;4991922;28;20459;-77
2022/01/16 10:27:43;;;;;;;30.07;15.70;;;2.40;99.90;;;;;;4991306;28;20472;-77
2022/01/16 10:30:14;;;;;;;29.43;14.10;;;2.40;99.90;;;;;;4971930;28;20550;-75
2022/01/16 10:32:44;;;;;;;25.50;13.67;;;2.40;99.90;;;;;;4991581;28;20457;-77
2022/01/16 10:35:12;;;;;;;24.10;13.30;;;2.40;99.90;;;;;;4991376;28;20453;-77
2022/01/16 10:37:45;;;;;;;21.73;10.57;;;2.40;99.90;;;;;;4991025;28;20465;-78
2022/01/16 10:40:14;;;;;;;23.07;13.17;;;2.40;99.90;;;;;;4990636;28;20453;-75
2022/01/16 10:42:41;;;;;;;27.53;11.20;;;2.40;99.90;;;;;;5007454;28;20473;-76
2022/01/16 10:45:07;;;;;;;21.80;8.97;;;2.40;99.90;;;;;;4997299;28;20979;-76
2022/01/16 10:47:34;;;;;;;23.00;9.30;;;2.40;99.90;;;;;;4990256;28;20545;-75
2022/01/16 10:50:25;;;;;;;16.23;8.70;;;2.40;99.90;;;;;;4992157;28;20465;-77
2022/01/16 10:53:02;;;;;;;21.87;8.90;;;2.40;99.90;;;;;;4983348;28;20464;-75
2022/01/16 10:55:32;;;;;;;21.37;9.20;;;2.40;99.90;;;;;;4990997;28;21091;-75
2022/01/16 10:58:03;;;;;;;17.90;8.87;;;2.40;99.90;;;;;;4990444;28;20996;-77
2022/01/16 11:00:29;;;;;;;13.93;8.43;;;2.40;99.90;;;;;;4974933;28;20831;-77
2022/01/16 11:02:59;;;;;;;22.87;9.53;;;2.40;99.90;;;;;;4991110;28;20469;-77
2022/01/16 11:05:28;;;;;;;17.20;9.97;;;2.50;99.90;;;;;;4992446;28;20449;-77
2022/01/16 11:08:06;;;;;;;20.33;9.77;;;2.50;99.90;;;;;;4991544;28;20457;-77
2022/01/16 11:10:36;;;;;;;17.20;8.37;;;2.50;99.90;;;;;;5007311;28;20790;-76
2022/01/16 11:13:27;;;;;;;18.90;9.20;;;2.50;99.90;;;;;;4991446;28;20465;-76
2022/01/16 11:15:55;;;;;;;18.60;8.70;;;2.50;99.90;;;;;;4988800;28;20615;-77
2022/01/16 11:18:23;;;;;;;20.47;7.40;;;2.40;99.90;;;;;;4991762;28;20536;-77
2022/01/16 11:26:09;;;;;;;16.60;9.60;;;2.40;99.90;;;;;;4985482;28;20456;-77
2022/01/16 11:28:35;;;;;;;38.00;17.47;;;2.40;99.90;;;;;;4992455;28;20472;-77
2022/01/16 11:31:04;;;;;;;46.40;22.63;;;2.40;99.90;;;;;;4991839;28;20313;-76
2022/01/16 11:33:33;;;;;;;39.23;21.37;;;2.40;99.90;;;;;;5001805;28;20221;-77
2022/01/16 11:36:04;;;;;;;77.50;32.07;;;2.40;99.90;;;;;;4989243;28;20468;-75
2022/01/16 11:38:44;;;;;;;85.30;33.57;;;2.50;99.90;;;;;;4987848;28;20484;-77
2022/01/16 11:41:19;;;;;;;57.37;26.60;;;2.50;99.90;;;;;;5008322;28;20460;-76
2022/01/16 11:43:50;;;;;;;31.70;17.10;;;2.50;99.90;;;;;;4989347;28;20460;-77
2022/01/16 11:46:22;;;;;;;21.87;11.00;;;2.50;99.90;;;;;;4974163;28;21000;-77
2022/01/16 11:49:00;;;;;;;17.40;8.83;;;2.40;99.90;;;;;;4989757;28;20555;-77
2022/01/16 11:51:35;;;;;;;15.70;8.97;;;2.50;99.90;;;;;;4992479;28;20843;-77
2022/01/16 11:54:10;;;;;;;20.00;8.40;;;2.50;99.90;;;;;;4973966;28;20464;-76
2022/01/16 11:56:42;;;;;;;17.50;9.17;;;2.60;99.90;;;;;;4990030;28;20542;-77
2022/01/16 11:59:10;;;;;;;16.80;8.40;;;2.60;99.90;;;;;;4990390;28;20548;-75
2022/01/16 12:01:59;;;;;;;20.67;8.47;;;2.60;99.90;;;;;;4991298;28;20473;-76
2022/01/16 12:04:28;;;;;;;17.97;9.00;;;2.60;99.90;;;;;;4991599;28;20503;-76
2022/01/16 12:06:54;;;;;;;15.23;7.70;;;2.60;99.90;;;;;;4974171;28;20548;-77
2022/01/16 12:12:15;;;;;;;23.70;10.40;;;2.70;99.90;;;;;;4965208;28;20462;-76
2022/01/16 12:14:49;;;;;;;27.60;13.90;;;2.70;99.90;;;;;;4973485;28;20532;-76
2022/01/16 12:17:47;;;;;;;41.70;20.27;;;2.70;99.90;;;;;;4971708;28;20216;-77
2022/01/16 12:20:17;;;;;;;35.27;18.90;;;2.70;99.90;;;;;;4985556;28;20453;-76
2022/01/16 12:22:55;;;;;;;25.50;14.40;;;2.80;99.90;;;;;;4988079;28;20473;-77
2022/01/16 12:25:58;;;;;;;23.57;12.60;;;2.80;99.90;;;;;;4971961;28;20516;-77
2022/01/16 12:28:25;;;;;;;28.47;13.27;;;2.80;99.90;;;;;;4985444;28;20453;-77
2022/01/16 12:30:55;;;;;;;24.70;12.10;;;2.90;99.90;;;;;;5007068;28;20492;-76
2022/01/16 12:33:24;;;;;;;20.50;12.80;;;2.90;99.90;;;;;;4986504;28;20903;-77
2022/01/16 12:35:50;;;;;;;21.03;10.83;;;3.00;99.90;;;;;;4985974;28;20469;-76
2022/01/16 12:38:20;;;;;;;20.43;10.70;;;3.00;99.90;;;;;;4996487;28;20545;-77
2022/01/16 12:40:50;;;;;;;18.17;10.00;;;3.00;99.90;;;;;;4989431;28;20453;-77
2022/01/16 12:43:25;;;;;;;23.60;12.07;;;3.10;99.90;;;;;;4986148;28;20480;-75
2022/01/16 12:45:51;;;;;;;21.73;9.87;;;3.10;99.90;;;;;;5002711;28;20480;-77
2022/01/16 12:48:16;;;;;;;18.20;9.20;;;3.20;99.90;;;;;;4993120;28;20460;-76
2022/01/16 12:50:42;;;;;;;17.50;8.77;;;3.20;99.90;;;;;;4991383;28;20229;-76
2022/01/16 12:53:08;;;;;;;19.87;9.37;;;3.20;99.90;;;;;;4989897;28;20218;-77
2022/01/16 12:55:34;;;;;;;15.90;8.90;;;3.30;99.90;;;;;;4989151;28;20221;-77
2022/01/16 12:58:18;;;;;;;16.20;9.37;;;3.30;99.90;;;;;;4988216;28;20548;-77
2022/01/16 13:01:03;;;;;;;19.43;8.80;;;3.30;99.90;;;;;;4990558;28;20484;-75
2022/01/16 13:03:30;;;;;;;16.07;9.53;;;3.30;99.90;;;;;;4987099;28;20468;-77
2022/01/16 13:06:18;;;;;;;19.90;10.20;;;3.30;99.90;;;;;;4990265;28;20463;-78
2022/01/16 13:08:51;;;;;;;20.10;9.20;;;3.30;99.90;;;;;;4988099;28;20469;-77
2022/01/16 13:11:17;;;;;;;23.00;9.67;;;3.30;99.90;;;;;;4988295;28;20480;-76
2022/01/16 13:13:42;;;;;;;13.40;8.53;;;3.30;99.90;;;;;;4990272;28;20985;-77
2022/01/16 13:16:23;;;;;;;16.10;8.50;;;3.30;99.90;;;;;;4977890;28;20272;-77
2022/01/16 13:19:00;;;;;;;17.70;9.00;;;3.30;99.90;;;;;;4952742;28;20230;-75
2022/01/16 13:21:34;;;;;;;22.73;9.17;;;3.30;99.90;;;;;;4965980;28;20446;-76
2022/01/16 13:24:01;;;;;;;23.27;11.07;;;3.30;99.90;;;;;;4969054;28;20485;-77
2022/01/16 13:26:31;;;;;;;24.87;14.90;;;3.30;99.90;;;;;;4968923;28;20593;-76
2022/01/16 13:29:05;;;;;;;33.13;18.53;;;3.30;99.90;;;;;;4993776;28;20470;-76
2022/01/16 13:31:34;;;;;;;54.23;28.67;;;3.20;99.90;;;;;;4985672;28;20501;-75
2022/01/16 13:34:32;;;;;;;72.37;36.77;;;3.20;99.90;;;;;;4968258;28;20986;-77
2022/01/16 13:36:57;;;;;;;76.57;40.93;;;3.20;99.90;;;;;;4968177;28;20540;-78
2022/01/16 13:39:34;;;;;;;93.13;45.37;;;3.20;99.90;;;;;;4988159;28;21005;-76
2022/01/16 13:42:11;;;;;;;98.13;46.03;;;3.20;99.90;;;;;;4979929;28;20248;-76
2022/01/16 13:44:37;;;;;;;87.50;45.60;;;3.20;99.90;;;;;;4974411;28;20479;-76
2022/01/16 13:47:02;;;;;;;65.63;39.37;;;3.20;99.90;;;;;;4978636;28;20466;-77